KFMN

Four Corners Regional Airport

Farmington, New Mexico, USA
METAR KFMN 230053Z 32011KT 10SM CLR 24/M04 A2987 RMK AO2 SLP064 T02391039
Observed Flight Rules
May-23 @ 00:53 UTC (28 minutes ago) Visual Flight Rules
Wind Visibility Clouds
320° at 11 knots 10 miles
  • Clear skies
Temperatures Readings
Current 24°C / 75°F
Dewpoint -4°C / 25°F
Humidity 15%
Altimeter 29.87" Hg
Pressure 1006.4 hPa
Elevation 1685
METAR KFMN 230053Z 32011KT 10SM CLR 24/M04 A2987 RMK AO2 SLP064 T02391039
Observed Flight Rules
May-23 @ 00:53 UTC
(28 minutes ago)
VFR
Wind Visibility
320° at 11 knots 10 miles
Clouds
  • Clear skies
Temperature Dewpoint
24°C / 75°F -4°C / 25°F
Humidity Altimeter Pressure
15% 29.87" Hg 1006.4 hPa